Time;durP1;ratioP1;P1;durP2;ratioP2;P2;SDS_P1;SDS_P2;PMS_P1;PMS_P2;Temp;Humidity;BMP_temperature;BMP_pressure;BME280_temperature;BME280_humidity;BME280_pressure;Samples;Min_cycle;Max_cycle;Signal;HPM_P1;HPM_P2
2022/10/06 00:01:08;;;;;;;0.70;0.70;;;;;;;6.04;100.00;99300.06;4994625;28;20054;-81
2022/10/06 00:03:37;;;;;;;0.70;0.70;;;;;;;6.01;100.00;99298.63;4993623;28;20054;-82
2022/10/06 00:06:05;;;;;;;0.70;0.70;;;;;;;6.05;100.00;99296.34;4994242;28;20046;-81
2022/10/06 00:08:34;;;;;;;0.70;0.70;;;;;;;6.08;100.00;99304.81;4976983;28;20046;-82
2022/10/06 00:11:01;;;;;;;0.70;0.70;;;;;;;6.07;100.00;99308.50;4994189;28;20054;-81
2022/10/06 00:13:29;;;;;;;0.70;0.70;;;;;;;6.06;100.00;99306.84;4994363;28;20050;-81
2022/10/06 00:15:56;;;;;;;0.70;0.70;;;;;;;6.08;100.00;99309.34;4994047;28;20050;-79
2022/10/06 00:18:23;;;;;;;0.60;0.60;;;;;;;6.10;100.00;99303.75;4994185;28;20058;-81
2022/10/06 00:20:58;;;;;;;0.60;0.60;;;;;;;6.12;100.00;99302.50;4993186;28;20054;-80
2022/10/06 00:23:27;;;;;;;0.80;0.80;;;;;;;6.11;100.00;99297.38;4994154;28;20576;-80
2022/10/06 00:25:54;;;;;;;0.70;0.70;;;;;;;6.11;100.00;99289.34;4993960;28;20058;-81
2022/10/06 00:28:21;;;;;;;0.60;0.60;;;;;;;6.09;100.00;99294.91;4994027;28;20065;-80
2022/10/06 00:30:52;;;;;;;0.70;0.70;;;;;;;6.07;100.00;99289.72;4960311;28;20051;-82
2022/10/06 00:33:19;;;;;;;0.70;0.70;;;;;;;6.15;100.00;99296.72;4994206;28;20109;-80
2022/10/06 00:35:55;;;;;;;0.63;0.63;;;;;;;6.14;100.00;99299.63;4993839;28;20045;-80
2022/10/06 00:38:22;;;;;;;0.60;0.60;;;;;;;6.13;100.00;99300.66;4992964;28;20149;-79
2022/10/06 00:40:50;;;;;;;0.60;0.60;;;;;;;6.11;100.00;99300.06;4993740;28;20079;-80
2022/10/06 00:43:53;;;;;;;0.70;0.70;;;;;;;6.13;100.00;99303.34;4994069;28;20043;-81
2022/10/06 00:46:23;;;;;;;0.60;0.60;;;;;;;6.11;100.00;99303.56;4939913;28;20089;-80
2022/10/06 00:48:59;;;;;;;0.60;0.60;;;;;;;6.13;100.00;99306.84;4971824;28;20142;-80
2022/10/06 00:51:27;;;;;;;0.70;0.70;;;;;;;6.14;100.00;99296.97;4955963;28;20062;-80
2022/10/06 00:53:56;;;;;;;0.60;0.60;;;;;;;6.13;100.00;99295.28;4971724;28;20049;-80
2022/10/06 00:56:24;;;;;;;0.70;0.70;;;;;;;6.16;100.00;99298.41;4971890;28;20055;-80
2022/10/06 00:58:52;;;;;;;0.60;0.60;;;;;;;6.18;100.00;99300.84;4971637;28;20058;-80
2022/10/06 01:01:19;;;;;;;0.70;0.70;;;;;;;6.17;100.00;99305.41;4971909;28;20054;-81
2022/10/06 01:03:52;;;;;;;0.70;0.70;;;;;;;6.19;100.00;99300.66;4971606;28;20082;-81
2022/10/06 01:06:19;;;;;;;0.60;0.60;;;;;;;6.19;100.00;99305.19;4971608;28;20055;-81
2022/10/06 01:08:47;;;;;;;0.70;0.70;;;;;;;6.17;100.00;99300.03;4971279;28;20145;-82
2022/10/06 01:11:14;;;;;;;0.60;0.60;;;;;;;6.19;100.00;99305.19;4955271;28;20058;-81
2022/10/06 01:13:42;;;;;;;0.70;0.70;;;;;;;6.19;100.00;99297.97;4955183;28;20149;-80
2022/10/06 01:16:15;;;;;;;0.70;0.70;;;;;;;6.21;100.00;99295.91;4955511;28;20507;-79
2022/10/06 01:18:43;;;;;;;0.70;0.70;;;;;;;6.21;100.00;99300.47;4971181;28;20137;-81
2022/10/06 01:21:44;;;;;;;0.60;0.60;;;;;;;6.19;100.00;99291.78;4959645;28;20062;-81
2022/10/06 01:24:11;;;;;;;0.60;0.60;;;;;;;6.17;100.00;99299.22;4955404;28;20082;-79
2022/10/06 01:26:44;;;;;;;0.63;0.63;;;;;;;6.16;100.00;99302.94;4971136;28;20154;-80
2022/10/06 01:29:12;;;;;;;0.60;0.60;;;;;;;6.14;100.00;99300.44;4935514;29;20062;-80
2022/10/06 01:31:40;;;;;;;0.70;0.70;;;;;;;6.14;100.00;99307.69;4951962;29;20572;-80
2022/10/06 01:34:07;;;;;;;0.60;0.60;;;;;;;6.17;100.00;99309.94;4951677;29;20138;-80
2022/10/06 01:36:34;;;;;;;0.70;0.70;;;;;;;6.19;100.00;99308.69;4951988;29;20051;-80
2022/10/06 01:39:01;;;;;;;0.70;0.70;;;;;;;6.23;100.00;99301.91;4951572;29;20059;-80
2022/10/06 01:41:29;;;;;;;0.70;0.70;;;;;;;6.22;100.00;99300.22;4951762;29;20601;-79
2022/10/06 01:43:56;;;;;;;0.70;0.70;;;;;;;6.25;100.00;99307.03;4954299;28;20050;-80
2022/10/06 01:46:28;;;;;;;0.70;0.70;;;;;;;6.22;100.00;99302.09;4954682;28;20089;-81
2022/10/06 01:48:55;;;;;;;0.60;0.60;;;;;;;6.23;100.00;99301.91;4970770;28;20113;-79
2022/10/06 01:51:23;;;;;;;0.60;0.60;;;;;;;6.19;100.00;99297.97;4970858;28;20057;-81
2022/10/06 01:53:50;;;;;;;0.70;0.70;;;;;;;6.20;100.00;99302.31;4970538;28;20058;-81
2022/10/06 01:56:19;;;;;;;0.60;0.60;;;;;;;6.22;100.00;99307.44;4970547;28;20145;-80
2022/10/06 01:58:47;;;;;;;0.60;0.60;;;;;;;6.22;100.00;99315.50;4956038;28;20047;-80
2022/10/06 02:01:14;;;;;;;0.63;0.63;;;;;;;6.25;100.00;99312.38;4959011;28;20049;-79
2022/10/06 02:03:42;;;;;;;0.70;0.70;;;;;;;6.25;100.00;99305.19;4992387;28;20058;-81
2022/10/06 02:06:09;;;;;;;0.60;0.60;;;;;;;6.24;100.00;99302.72;4991363;28;20565;-79
2022/10/06 02:08:41;;;;;;;0.60;0.60;;;;;;;6.25;100.00;99309.72;4991199;28;20133;-80
2022/10/06 02:11:10;;;;;;;0.70;0.70;;;;;;;6.27;100.00;99302.28;4992420;28;20073;-81
2022/10/06 02:13:41;;;;;;;0.60;0.60;;;;;;;6.20;100.00;99298.78;4975143;28;20081;-80
2022/10/06 02:16:12;;;;;;;0.70;0.70;;;;;;;6.20;100.00;99298.78;4975103;28;20051;-81
2022/10/06 02:18:41;;;;;;;0.60;0.60;;;;;;;6.19;100.00;99294.47;4990861;28;20062;-81
2022/10/06 02:21:19;;;;;;;0.60;0.60;;;;;;;6.18;100.00;99295.50;4974040;28;20054;-80
2022/10/06 02:23:47;;;;;;;0.68;0.68;;;;;;;6.17;100.00;99293.84;4958617;28;20505;-79
2022/10/06 02:26:18;;;;;;;0.70;0.70;;;;;;;6.13;100.00;99292.63;4992216;28;20202;-80
2022/10/06 02:28:50;;;;;;;0.70;0.70;;;;;;;6.15;100.00;99306.63;4990904;28;20053;-81
2022/10/06 02:31:22;;;;;;;0.70;0.70;;;;;;;6.15;100.00;99309.31;4991979;28;20108;-80
2022/10/06 02:33:50;;;;;;;0.70;0.70;;;;;;;6.18;100.00;99306.22;4990832;28;20046;-81
2022/10/06 02:36:18;;;;;;;0.70;0.70;;;;;;;6.18;100.00;99309.75;4974476;28;20498;-80
2022/10/06 02:38:45;;;;;;;0.60;0.60;;;;;;;6.16;100.00;99310.97;4974217;28;20056;-80
2022/10/06 02:41:13;;;;;;;0.60;0.60;;;;;;;6.17;100.00;99317.97;4990617;28;20042;-80
2022/10/06 02:43:40;;;;;;;0.65;0.65;;;;;;;6.15;100.00;99328.88;4991669;28;20085;-81
2022/10/06 02:46:13;;;;;;;0.60;0.60;;;;;;;6.17;100.00;99318.78;4974163;28;20532;-80
2022/10/06 02:48:47;;;;;;;0.60;0.60;;;;;;;6.17;100.00;99328.69;4957980;28;20054;-80
2022/10/06 02:51:16;;;;;;;0.60;0.60;;;;;;;6.16;100.00;99319.84;4974183;28;20109;-81
2022/10/06 02:53:45;;;;;;;0.60;0.60;;;;;;;6.15;100.00;99320.84;4974508;28;20093;-80
2022/10/06 02:56:14;;;;;;;0.70;0.70;;;;;;;6.15;100.00;99330.75;4958552;28;20046;-81
2022/10/06 02:58:43;;;;;;;0.60;0.60;;;;;;;6.17;100.00;99328.69;4991866;28;20086;-80
2022/10/06 03:01:26;;;;;;;0.70;0.70;;;;;;;6.14;100.00;99329.13;4990319;28;20053;-80
2022/10/06 03:03:56;;;;;;;0.65;0.65;;;;;;;6.12;100.00;99332.00;4958501;28;20464;-80
2022/10/06 03:06:25;;;;;;;0.60;0.60;;;;;;;6.15;100.00;99330.75;4991407;28;20502;-79
2022/10/06 03:09:07;;;;;;;0.70;0.70;;;;;;;6.15;100.00;99336.09;4974043;28;20109;-82
2022/10/06 03:11:39;;;;;;;0.60;0.60;;;;;;;6.18;100.00;99330.31;4974205;28;20063;-80
2022/10/06 03:14:08;;;;;;;0.60;0.60;;;;;;;6.18;100.00;99330.31;4973855;28;20161;-81
2022/10/06 03:16:37;;;;;;;0.70;0.70;;;;;;;6.20;100.00;99326.44;4974066;28;20051;-81
2022/10/06 03:19:09;;;;;;;0.60;0.60;;;;;;;6.23;100.00;99327.88;4974109;28;20053;-81
2022/10/06 03:21:38;;;;;;;0.60;0.60;;;;;;;6.22;100.00;99329.72;4991729;28;20061;-80
2022/10/06 03:24:06;;;;;;;0.60;0.60;;;;;;;6.24;100.00;99329.50;4974055;28;20081;-80
2022/10/06 03:26:39;;;;;;;0.70;0.70;;;;;;;6.25;100.00;99326.63;4974233;28;20050;-80
2022/10/06 03:29:08;;;;;;;0.70;0.70;;;;;;;6.27;100.00;99321.88;4989885;28;20406;-80
2022/10/06 03:31:43;;;;;;;0.70;0.70;;;;;;;6.25;100.00;99317.75;4974907;28;20059;-80
2022/10/06 03:34:14;;;;;;;0.70;0.70;;;;;;;6.28;100.00;99320.03;4993541;28;20050;-81
2022/10/06 03:36:43;;;;;;;0.60;0.60;;;;;;;6.33;100.00;99314.88;4977409;28;20434;-80
2022/10/06 03:39:10;;;;;;;0.60;0.60;;;;;;;6.33;100.00;99322.06;4993487;28;20046;-80
2022/10/06 03:41:38;;;;;;;0.70;0.70;;;;;;;6.31;100.00;99322.28;4993201;28;20070;-80
2022/10/06 03:44:07;;;;;;;0.60;0.60;;;;;;;6.35;100.00;99328.03;5000293;28;20608;-81
2022/10/06 03:46:37;;;;;;;0.60;0.60;;;;;;;6.33;100.00;99332.78;4992411;28;20050;-81
2022/10/06 03:49:07;;;;;;;0.60;0.60;;;;;;;6.33;100.00;99328.28;4983631;28;20060;-82
2022/10/06 03:51:37;;;;;;;0.60;0.60;;;;;;;6.33;100.00;99322.06;4975902;28;20069;-81
2022/10/06 03:54:12;;;;;;;0.63;0.63;;;;;;;6.36;100.00;99327.84;4999991;28;20062;-81
2022/10/06 03:56:42;;;;;;;0.60;0.60;;;;;;;6.33;100.00;99327.44;5000052;28;20057;-81
2022/10/06 03:59:12;;;;;;;0.60;0.60;;;;;;;6.34;100.00;99329.91;4990737;28;20050;-80
2022/10/06 04:01:44;;;;;;;0.70;0.70;;;;;;;6.37;100.00;99337.53;4976761;28;20050;-81
2022/10/06 04:04:14;;;;;;;0.70;0.70;;;;;;;6.38;100.00;99336.50;4993183;28;20053;-78
2022/10/06 04:06:43;;;;;;;0.60;0.60;;;;;;;6.37;100.00;99336.72;4997662;28;20117;-79
2022/10/06 04:09:14;;;;;;;0.60;0.60;;;;;;;6.39;100.00;99338.16;4975115;28;20043;-81
2022/10/06 04:11:43;;;;;;;0.63;0.63;;;;;;;6.39;100.00;99338.16;4999854;28;20046;-81
2022/10/06 04:14:14;;;;;;;0.60;0.60;;;;;;;6.38;100.00;99341.03;4974812;28;20062;-81
2022/10/06 04:16:44;;;;;;;0.70;0.70;;;;;;;6.36;100.00;99340.44;4992701;28;20587;-81
2022/10/06 04:19:14;;;;;;;0.60;0.60;;;;;;;6.37;100.00;99339.38;4992072;28;20138;-80
2022/10/06 04:21:45;;;;;;;0.60;0.60;;;;;;;6.35;100.00;99339.59;4976562;28;20046;-81
2022/10/06 04:24:17;;;;;;;0.60;0.60;;;;;;;6.32;100.00;99334.66;4976286;28;20068;-81
2022/10/06 04:26:49;;;;;;;0.70;0.70;;;;;;;6.36;100.00;99343.13;4976226;28;20509;-82
2022/10/06 04:29:17;;;;;;;0.60;0.60;;;;;;;6.42;100.00;99347.63;4992701;28;20062;-81
2022/10/06 04:31:49;;;;;;;0.70;0.70;;;;;;;6.41;100.00;99349.50;4959880;28;20078;-81
2022/10/06 04:34:31;;;;;;;0.70;0.70;;;;;;;6.40;100.00;99350.50;4976424;28;20051;-82
2022/10/06 04:36:58;;;;;;;0.68;0.68;;;;;;;6.41;100.00;99354.03;4991909;28;20477;-82
2022/10/06 04:39:25;;;;;;;0.60;0.60;;;;;;;6.41;100.00;99356.72;4976468;28;20065;-82
2022/10/06 04:41:52;;;;;;;0.60;0.60;;;;;;;6.42;100.00;99359.16;4991784;28;20057;-82
2022/10/06 04:44:26;;;;;;;0.70;0.70;;;;;;;6.41;100.00;99354.84;4974978;28;20600;-81
2022/10/06 04:46:55;;;;;;;0.60;0.60;;;;;;;6.47;100.00;99363.91;4993172;28;20587;-81
2022/10/06 04:49:32;;;;;;;0.70;0.70;;;;;;;6.48;100.00;99360.19;4903135;28;10001294;-81
2022/10/06 04:52:04;;;;;;;0.60;0.60;;;;;;;6.50;100.00;99360.81;4967981;28;20314;-82
2022/10/06 04:54:34;;;;;;;0.60;0.60;;;;;;;6.49;100.00;99365.34;4968410;28;20047;-81
2022/10/06 04:57:03;;;;;;;0.70;0.70;;;;;;;6.50;100.00;99361.63;4971228;28;20054;-83
2022/10/06 05:02:19;;;;;;;0.60;0.60;;;;;;;6.58;100.00;99365.94;4981476;28;20073;-84
2022/10/06 05:04:51;;;;;;;0.70;0.70;;;;;;;6.58;100.00;99363.25;4988516;28;20137;-82
2022/10/06 05:07:20;;;;;;;0.70;0.70;;;;;;;6.56;100.00;99359.13;4986981;28;20502;-83
2022/10/06 05:09:47;;;;;;;0.70;0.70;;;;;;;6.61;100.00;99372.75;4979275;28;20058;-80
2022/10/06 05:12:16;;;;;;;0.70;0.70;;;;;;;6.63;100.00;99368.00;4987818;28;20053;-82
2022/10/06 05:14:45;;;;;;;0.70;0.70;;;;;;;6.62;100.00;99375.22;4987419;28;20081;-81
2022/10/06 05:17:14;;;;;;;0.60;0.60;;;;;;;6.65;100.00;99368.63;4988923;28;20050;-82
2022/10/06 05:19:42;;;;;;;0.60;0.60;;;;;;;6.64;100.00;99365.13;4954118;28;20046;-84
2022/10/06 05:22:10;;;;;;;0.70;0.70;;;;;;;6.67;100.00;99371.91;4986769;28;20077;-82
2022/10/06 05:24:38;;;;;;;0.60;0.60;;;;;;;6.69;100.00;99357.25;4972135;28;20120;-82
2022/10/06 05:27:05;;;;;;;0.70;0.70;;;;;;;6.72;100.00;99364.06;4989028;28;20393;-81
2022/10/06 05:29:33;;;;;;;0.70;0.70;;;;;;;6.77;100.00;99361.56;4971209;28;20434;-81
2022/10/06 05:32:05;;;;;;;0.70;0.70;;;;;;;6.83;100.00;99371.44;4988251;28;20417;-81
2022/10/06 05:34:34;;;;;;;0.60;0.60;;;;;;;6.84;100.00;99361.56;4951648;28;20047;-86
2022/10/06 05:37:01;;;;;;;0.60;0.60;;;;;;;6.92;100.00;99362.13;4988017;28;20066;-82
2022/10/06 05:39:28;;;;;;;0.60;0.60;;;;;;;6.99;100.00;99370.19;4987806;28;20058;-81
2022/10/06 05:41:56;;;;;;;0.70;0.70;;;;;;;7.04;100.00;99369.53;4988063;28;20050;-82
2022/10/06 05:44:24;;;;;;;0.70;0.70;;;;;;;7.03;100.00;99373.25;4986758;28;20133;-84
2022/10/06 05:46:53;;;;;;;0.70;0.70;;;;;;;7.04;100.00;99372.19;4964556;28;20703;-82
2022/10/06 05:49:20;;;;;;;0.60;0.60;;;;;;;7.07;100.00;99382.53;4958566;28;20513;-80
2022/10/06 05:51:56;;;;;;;0.60;0.60;;;;;;;7.07;100.00;99374.50;4963960;28;20046;-80
2022/10/06 05:54:29;;;;;;;0.70;0.70;;;;;;;7.10;100.00;99384.78;4971412;28;20066;-81
2022/10/06 05:56:56;;;;;;;0.70;0.70;;;;;;;7.13;100.00;99382.50;4987299;28;20046;-83
2022/10/06 05:59:27;;;;;;;0.70;0.70;;;;;;;7.18;100.00;99373.81;4971306;28;20797;-82
2022/10/06 06:01:55;;;;;;;0.60;0.60;;;;;;;7.23;100.00;99368.63;4626608;28;10000637;-83
2022/10/06 06:04:31;;;;;;;0.70;0.70;;;;;;;7.27;100.00;99372.53;4969935;28;20053;-82
2022/10/06 06:07:00;;;;;;;0.70;0.70;;;;;;;7.37;100.00;99375.59;4989438;28;20068;-82
2022/10/06 06:09:27;;;;;;;0.70;0.70;;;;;;;7.44;100.00;99374.72;4973896;28;20584;-82
2022/10/06 06:11:58;;;;;;;0.60;0.60;;;;;;;7.40;100.00;99376.19;4972529;28;20057;-82
2022/10/06 06:17:30;;;;;;;0.70;0.70;;;;;;;7.51;100.00;99383.56;4990889;28;20054;-81
2022/10/06 06:19:59;;;;;;;0.70;0.70;;;;;;;7.52;100.00;99380.66;4975417;28;20050;-81
2022/10/06 06:22:26;;;;;;;0.70;0.70;;;;;;;7.51;99.94;99380.88;4992085;28;20415;-82
2022/10/06 06:24:53;;;;;;;0.60;0.60;;;;;;;7.53;100.00;99392.22;4990606;28;20101;-81
2022/10/06 06:27:20;;;;;;;0.60;0.60;;;;;;;7.54;99.48;99380.44;5007122;28;20505;-81
2022/10/06 06:29:47;;;;;;;0.70;0.70;;;;;;;7.59;99.57;99381.44;4990885;28;20069;-81
2022/10/06 06:32:14;;;;;;;0.70;0.70;;;;;;;7.67;99.73;99382.22;4990618;28;20046;-81
2022/10/06 06:34:42;;;;;;;0.70;0.70;;;;;;;7.62;99.65;99380.16;4990539;28;20046;-81
2022/10/06 06:37:09;;;;;;;0.60;0.60;;;;;;;7.58;99.51;99392.41;4991800;28;20057;-80
2022/10/06 06:39:43;;;;;;;0.70;0.70;;;;;;;7.45;99.93;99384.44;4974389;28;20054;-83
2022/10/06 06:42:10;;;;;;;0.60;0.60;;;;;;;7.41;100.00;99388.56;4990248;28;20081;-82
2022/10/06 06:44:38;;;;;;;0.60;0.60;;;;;;;7.43;100.00;99381.94;4991327;28;20498;-82
2022/10/06 06:47:20;;;;;;;0.70;0.70;;;;;;;7.48;100.00;99384.00;4991438;28;20062;-80
2022/10/06 06:49:51;;;;;;;0.70;0.70;;;;;;;7.60;100.00;99379.59;4989656;28;20045;-81
2022/10/06 06:52:19;;;;;;;0.60;0.60;;;;;;;7.64;100.00;99386.16;4991481;28;20046;-81
2022/10/06 06:54:48;;;;;;;0.60;0.60;;;;;;;7.66;100.00;99386.78;4989958;28;20465;-81
2022/10/06 06:57:17;;;;;;;0.70;0.70;;;;;;;7.71;99.85;99376.19;4990844;28;20054;-80
2022/10/06 06:59:46;;;;;;;0.70;0.70;;;;;;;7.68;99.26;99373.94;5006483;28;20046;-81
2022/10/06 07:02:18;;;;;;;0.60;0.60;;;;;;;7.75;99.52;99371.22;4991935;28;20577;-81
2022/10/06 07:04:47;;;;;;;0.70;0.70;;;;;;;7.88;99.08;99384.56;4990357;28;20054;-81
2022/10/06 07:07:18;;;;;;;0.65;0.65;;;;;;;8.02;98.58;99379.91;4990656;28;20100;-81
2022/10/06 07:09:45;;;;;;;0.60;0.60;;;;;;;8.16;97.97;99370.69;4994141;28;20056;-81
2022/10/06 07:12:14;;;;;;;0.70;0.70;;;;;;;8.25;98.00;99382.84;4994517;28;20097;-82
2022/10/06 07:26:14;;;;;;;0.70;0.70;;;;;;;8.26;95.30;99375.59;5000527;28;20129;-82
2022/10/06 07:28:42;;;;;;;0.70;0.70;;;;;;;8.33;95.48;99376.34;4997299;28;20632;-80
2022/10/06 07:31:11;;;;;;;0.60;0.60;;;;;;;8.41;95.46;99375.28;5014470;28;20046;-81
2022/10/06 07:33:39;;;;;;;0.70;0.70;;;;;;;8.44;95.03;99372.16;4997023;28;20046;-82
2022/10/06 07:36:08;;;;;;;0.70;0.70;;;;;;;8.38;94.11;99381.06;4997030;28;20501;-81
2022/10/06 07:38:36;;;;;;;0.60;0.60;;;;;;;8.25;94.38;99374.78;4997378;28;20074;-81
2022/10/06 07:41:03;;;;;;;0.70;0.70;;;;;;;8.24;94.76;99372.28;5013106;28;20058;-82
2022/10/06 07:43:54;;;;;;;0.70;0.70;;;;;;;8.30;95.11;99375.97;4997032;28;20050;-82
2022/10/06 07:46:23;;;;;;;0.60;0.60;;;;;;;8.32;95.30;99368.50;4996736;28;20509;-82
2022/10/06 07:49:10;;;;;;;0.70;0.70;;;;;;;8.41;95.43;99365.34;5013436;28;20058;-83
2022/10/06 07:51:38;;;;;;;0.60;0.60;;;;;;;8.46;95.16;99362.00;4996658;28;20141;-82
2022/10/06 07:54:07;;;;;;;0.70;0.70;;;;;;;8.55;95.08;99362.50;5012821;28;20117;-82
2022/10/06 07:57:00;;;;;;;0.65;0.65;;;;;;;8.67;94.85;99360.72;4996852;28;20049;-83
2022/10/06 07:59:27;;;;;;;0.60;0.60;;;;;;;8.74;94.31;99364.19;5014469;28;20045;-82
2022/10/06 08:01:54;;;;;;;0.63;0.63;;;;;;;8.72;93.56;99352.81;5014154;28;20191;-82
2022/10/06 08:04:21;;;;;;;0.65;0.65;;;;;;;8.83;93.85;99359.31;5014383;28;20149;-82
2022/10/06 08:06:48;;;;;;;0.60;0.60;;;;;;;8.83;93.27;99362.00;5014110;28;20104;-82
2022/10/06 08:09:15;;;;;;;0.60;0.60;;;;;;;8.79;93.15;99358.13;4985133;28;20054;-82
2022/10/06 08:11:43;;;;;;;0.70;0.70;;;;;;;8.82;93.43;99353.13;5001215;28;20045;-82
2022/10/06 08:14:13;;;;;;;0.60;0.60;;;;;;;8.88;92.99;99356.78;4992249;28;20421;-81
2022/10/06 08:16:41;;;;;;;0.60;0.60;;;;;;;8.93;93.00;99356.91;4989823;28;20082;-83
2022/10/06 08:19:08;;;;;;;0.68;0.68;;;;;;;9.09;93.21;99352.81;4991598;28;20043;-81
2022/10/06 08:21:34;;;;;;;0.60;0.60;;;;;;;9.17;92.71;99349.81;4976567;28;20065;-82
2022/10/06 08:24:01;;;;;;;0.60;0.60;;;;;;;9.15;92.53;99341.13;4992189;28;20055;-81
2022/10/06 08:26:29;;;;;;;0.60;0.60;;;;;;;9.17;92.17;99343.59;4993224;28;20046;-81
2022/10/06 08:28:58;;;;;;;0.60;0.60;;;;;;;9.21;92.39;99350.16;4991978;28;20513;-81
2022/10/06 08:31:25;;;;;;;0.60;0.60;;;;;;;9.22;91.98;99358.03;4992655;28;20058;-81
2022/10/06 08:33:54;;;;;;;0.60;0.60;;;;;;;9.11;91.47;99350.69;4993927;28;20058;-80
2022/10/06 08:36:25;;;;;;;0.60;0.60;;;;;;;9.09;91.72;99356.31;4993913;28;20050;-80
2022/10/06 08:38:58;;;;;;;0.70;0.70;;;;;;;9.05;91.82;99357.81;4993892;28;20046;-83
2022/10/06 08:41:34;;;;;;;0.70;0.70;;;;;;;9.28;91.66;99359.78;4991948;28;20046;-82
2022/10/06 08:44:41;;;;;;;0.60;0.60;;;;;;;9.36;91.00;99352.44;5003313;28;20054;-82
2022/10/06 08:47:17;;;;;;;0.60;0.60;;;;;;;9.28;91.15;99353.59;4974138;28;20146;-81
2022/10/06 08:49:46;;;;;;;0.60;0.60;;;;;;;9.25;91.55;99362.13;4950719;28;20118;-82
2022/10/06 08:52:19;;;;;;;0.60;0.60;;;;;;;9.22;91.94;99368.78;4942231;29;20067;-82
2022/10/06 08:54:58;;;;;;;0.60;0.60;;;;;;;9.25;92.30;99359.44;4950492;28;20051;-80
2022/10/06 08:57:53;;;;;;;0.60;0.60;;;;;;;9.23;92.45;99358.84;4950313;29;20051;-82
2022/10/06 09:00:21;;;;;;;0.60;0.60;;;;;;;9.18;92.34;99372.16;4945315;29;20051;-81
2022/10/06 09:02:54;;;;;;;0.60;0.60;;;;;;;9.11;92.23;99370.38;4951722;28;20096;-80
2022/10/06 09:05:25;;;;;;;0.60;0.60;;;;;;;9.16;92.52;99371.56;4952048;29;20106;-81
2022/10/06 09:08:23;;;;;;;0.60;0.60;;;;;;;9.11;92.23;99373.06;4952295;29;20139;-81
2022/10/06 09:11:08;;;;;;;0.60;0.60;;;;;;;8.97;92.56;99373.47;4951563;28;20078;-81
2022/10/06 09:13:41;;;;;;;0.60;0.60;;;;;;;8.99;93.02;99376.72;4619925;28;10000079;-81
2022/10/06 09:16:12;;;;;;;0.60;0.60;;;;;;;9.01;93.24;99370.06;4934964;28;20055;-82
2022/10/06 09:18:48;;;;;;;0.60;0.60;;;;;;;9.04;93.28;99382.25;4955001;28;20466;-81
2022/10/06 09:21:50;;;;;;;0.65;0.65;;;;;;;9.05;93.16;99373.97;4944308;28;20075;-81
2022/10/06 09:24:40;;;;;;;0.60;0.60;;;;;;;9.09;93.03;99371.66;4941912;29;20055;-82
2022/10/06 09:27:18;;;;;;;0.60;0.60;;;;;;;9.10;93.07;99387.56;4942155;28;20051;-80
2022/10/06 09:29:50;;;;;;;0.60;0.60;;;;;;;9.08;93.11;99370.00;4966757;28;20581;-83
2022/10/06 09:32:19;;;;;;;0.55;0.55;;;;;;;9.11;93.14;99370.38;4934097;28;20530;-87
2022/10/06 09:34:51;;;;;;;0.60;0.60;;;;;;;9.26;93.17;99369.97;4970569;28;20058;-83
2022/10/06 09:37:18;;;;;;;0.60;0.60;;;;;;;9.40;92.68;99361.72;4952605;28;20054;-83
2022/10/06 09:39:49;;;;;;;0.60;0.60;;;;;;;9.51;92.73;99369.84;4951201;28;20058;-84
2022/10/06 09:42:21;;;;;;;0.60;0.60;;;;;;;9.57;92.05;99368.13;4968165;28;20081;-83
2022/10/06 09:45:04;;;;;;;0.60;0.60;;;;;;;9.66;91.35;99368.63;4965159;28;20078;-83
2022/10/06 09:47:38;;;;;;;0.60;0.60;;;;;;;9.61;90.95;99372.00;4948826;28;20058;-83
2022/10/06 09:50:13;;;;;;;0.60;0.60;;;;;;;9.72;91.29;99367.69;4951064;28;20059;-82
2022/10/06 09:52:43;;;;;;;0.60;0.60;;;;;;;9.80;91.01;99363.84;4952083;28;20047;-84
2022/10/06 09:55:13;;;;;;;0.60;0.60;;;;;;;9.96;90.89;99363.19;4952585;28;20070;-83
2022/10/06 09:57:48;;;;;;;0.60;0.60;;;;;;;10.05;90.40;99360.97;4951249;28;20506;-84
2022/10/06 10:00:30;;;;;;;0.60;0.60;;;;;;;10.06;89.28;99357.22;4966767;28;20047;-85
2022/10/06 10:03:01;;;;;;;0.70;0.70;;;;;;;10.17;89.13;99356.41;4972139;28;20129;-82
2022/10/06 10:05:33;;;;;;;0.60;0.60;;;;;;;10.30;88.80;99350.00;4950405;28;20051;-85
2022/10/06 10:08:13;;;;;;;0.60;0.60;;;;;;;10.37;87.63;99348.81;4950752;28;20054;-82
2022/10/06 10:10:41;;;;;;;0.60;0.60;;;;;;;10.38;87.13;99344.25;4962962;28;20150;-83
2022/10/06 10:13:23;;;;;;;0.60;0.60;;;;;;;10.54;87.19;99348.94;4972821;28;20062;-82
2022/10/06 10:16:02;;;;;;;0.60;0.60;;;;;;;10.65;86.20;99343.75;4968530;28;20066;-84
2022/10/06 10:18:31;;;;;;;0.60;0.60;;;;;;;10.78;85.57;99343.50;4945671;28;20069;-83
2022/10/06 10:21:04;;;;;;;0.60;0.60;;;;;;;11.04;85.03;99342.19;4967553;28;20050;-82
2022/10/06 10:23:34;;;;;;;0.70;0.70;;;;;;;11.15;83.26;99354.00;4966889;28;20070;-84
2022/10/06 10:26:06;;;;;;;0.80;0.80;;;;;;;11.58;80.83;99344.53;4970854;28;20054;-82
2022/10/06 10:28:56;;;;;;;0.68;0.68;;;;;;;11.80;79.77;99344.66;4959437;28;20634;-84
2022/10/06 10:31:48;;;;;;;0.73;0.73;;;;;;;11.74;78.72;99337.53;4968568;28;20055;-84
2022/10/06 10:34:22;;;;;;;0.70;0.70;;;;;;;11.54;79.08;99341.50;4946437;28;20050;-83
2022/10/06 10:36:59;;;;;;;0.60;0.60;;;;;;;11.83;79.44;99347.69;4969871;28;20113;-83
2022/10/06 10:39:32;;;;;;;0.60;0.60;;;;;;;11.63;78.77;99348.16;4962234;28;20450;-83
2022/10/06 10:42:03;;;;;;;0.60;0.60;;;;;;;11.35;79.63;99362.50;4961958;28;20066;-83
2022/10/06 10:44:43;;;;;;;0.60;0.60;;;;;;;11.19;81.03;99353.28;4971297;28;20047;-83
2022/10/06 10:47:14;;;;;;;0.60;0.60;;;;;;;11.03;81.43;99348.63;4954178;28;20105;-82
2022/10/06 10:49:46;;;;;;;0.60;0.60;;;;;;;10.98;82.15;99354.72;4952353;28;20063;-82
2022/10/06 10:52:16;;;;;;;0.50;0.50;;;;;;;10.83;82.39;99349.00;4967961;28;20061;-84
2022/10/06 10:54:50;;;;;;;0.60;0.60;;;;;;;10.79;83.06;99345.16;4970076;28;20568;-85
2022/10/06 10:57:21;;;;;;;0.50;0.50;;;;;;;10.85;83.20;99350.41;4969472;28;20049;-84
2022/10/06 11:00:06;;;;;;;0.60;0.60;;;;;;;10.84;83.24;99343.38;4954027;28;20054;-81
2022/10/06 11:02:34;;;;;;;0.60;0.60;;;;;;;10.81;83.55;99341.16;4968852;28;20291;-82
2022/10/06 11:05:12;;;;;;;0.57;0.57;;;;;;;10.91;83.92;99347.81;4966729;28;20051;-82
2022/10/06 11:07:44;;;;;;;0.60;0.60;;;;;;;10.94;83.49;99360.84;4967531;28;20105;-84
2022/10/06 11:10:22;;;;;;;0.60;0.60;;;;;;;10.83;83.65;99344.44;4967219;28;20051;-83
2022/10/06 11:12:56;;;;;;;0.50;0.50;;;;;;;10.88;84.09;99341.03;4977386;28;20062;-83
2022/10/06 11:15:26;;;;;;;0.60;0.60;;;;;;;10.94;83.99;99342.78;4992533;28;20103;-79
2022/10/06 11:18:00;;;;;;;0.57;0.57;;;;;;;10.94;83.58;99347.34;4992219;28;20102;-83
2022/10/06 11:20:52;;;;;;;0.60;0.60;;;;;;;10.98;83.68;99356.63;4973800;28;20080;-81
2022/10/06 11:23:43;;;;;;;0.60;0.60;;;;;;;10.99;83.81;99352.88;4966973;28;20058;-84
2022/10/06 11:26:35;;;;;;;0.50;0.50;;;;;;;10.98;84.14;99348.50;4981387;28;20054;-83
2022/10/06 11:29:23;;;;;;;0.50;0.50;;;;;;;10.89;84.57;99347.22;4984137;28;20055;-82
2022/10/06 11:32:09;;;;;;;0.50;0.50;;;;;;;10.82;84.80;99350.09;4973471;28;20429;-82
2022/10/06 11:34:36;;;;;;;0.60;0.60;;;;;;;10.82;84.81;99350.91;4991112;28;20485;-82
2022/10/06 11:37:25;;;;;;;0.50;0.50;;;;;;;10.80;84.93;99346.78;4988632;28;20046;-82
2022/10/06 11:40:30;;;;;;;0.50;0.50;;;;;;;10.75;85.31;99350.19;4981476;28;20052;-83
2022/10/06 11:43:02;;;;;;;0.60;0.60;;;;;;;10.69;85.83;99339.53;4991343;28;20065;-81
2022/10/06 11:46:04;;;;;;;0.50;0.50;;;;;;;10.80;86.09;99349.50;4990164;28;20082;-83
2022/10/06 11:48:32;;;;;;;0.60;0.60;;;;;;;10.79;85.73;99340.59;4968889;28;20058;-82
2022/10/06 11:51:22;;;;;;;0.60;0.60;;;;;;;10.94;85.40;99341.94;4973767;28;20060;-82
2022/10/06 11:53:51;;;;;;;0.60;0.60;;;;;;;11.10;85.38;99335.81;4966470;28;20046;-82
2022/10/06 11:56:18;;;;;;;0.50;0.50;;;;;;;11.21;84.74;99343.03;4963461;28;20051;-81
2022/10/06 11:58:51;;;;;;;0.50;0.50;;;;;;;11.19;84.18;99341.63;4967381;28;20245;-81
2022/10/06 12:01:30;;;;;;;0.60;0.60;;;;;;;11.15;84.10;99338.59;4982319;28;20166;-81
2022/10/06 12:04:09;;;;;;;0.50;0.50;;;;;;;11.20;84.20;99327.91;4968571;28;20059;-82
2022/10/06 12:09:38;;;;;;;0.60;0.60;;;;;;;11.15;82.88;99348.59;4973992;28;20136;-82
2022/10/06 12:12:16;;;;;;;0.50;0.50;;;;;;;11.06;82.96;99350.84;4962870;28;20573;-82
2022/10/06 12:15:00;;;;;;;0.50;0.50;;;;;;;11.04;82.92;99339.47;4981981;28;20058;-81
2022/10/06 12:18:08;;;;;;;0.50;0.50;;;;;;;11.02;83.38;99344.28;4964614;28;20082;-82